createdAt,value
2023-05-15T00:00:15.367Z,468.00
2023-05-15T00:01:15.414Z,469.00
2023-05-15T00:02:15.469Z,470.00
2023-05-15T00:03:15.550Z,472.00
2023-05-15T00:04:15.587Z,475.00
2023-05-15T00:05:15.660Z,475.00
2023-05-15T00:06:15.669Z,476.00
2023-05-15T00:07:15.744Z,475.00
2023-05-15T00:08:15.782Z,476.00
2023-05-15T00:09:15.831Z,475.00
2023-05-15T00:10:15.898Z,474.00
2023-05-15T00:11:15.941Z,472.00
2023-05-15T00:12:15.993Z,466.00
2023-05-15T00:13:16.050Z,464.00
2023-05-15T00:14:16.101Z,466.00
2023-05-15T00:15:16.158Z,465.00
2023-05-15T00:16:16.279Z,465.00
2023-05-15T00:17:16.251Z,462.00
2023-05-15T00:18:16.310Z,462.00
2023-05-15T00:19:16.475Z,464.00
2023-05-15T00:20:16.461Z,464.00
2023-05-15T00:21:16.478Z,463.00
2023-05-15T00:22:16.548Z,464.00
2023-05-15T00:23:16.605Z,466.00
2023-05-15T00:24:16.637Z,466.00
2023-05-15T00:25:16.671Z,467.00
2023-05-15T00:26:16.740Z,467.00
2023-05-15T00:27:16.773Z,469.00
2023-05-15T00:28:16.830Z,470.00
2023-05-15T00:29:16.892Z,472.00
2023-05-15T00:30:16.953Z,471.00
2023-05-15T00:31:17.097Z,472.00
2023-05-15T00:32:17.086Z,471.00
2023-05-15T00:33:17.127Z,472.00
2023-05-15T00:34:17.165Z,471.00
2023-05-15T00:35:17.218Z,470.00
2023-05-15T00:36:17.292Z,471.00
2023-05-15T00:37:17.340Z,471.00
2023-05-15T00:38:17.407Z,470.00
2023-05-15T00:39:17.450Z,468.00
2023-05-15T00:40:17.483Z,469.00
2023-05-15T00:41:17.555Z,469.00
2023-05-15T00:42:17.611Z,469.00
2023-05-15T00:43:17.696Z,467.00
2023-05-15T00:44:17.724Z,469.00
2023-05-15T00:45:17.771Z,470.00
2023-05-15T00:46:17.846Z,469.00
2023-05-15T00:47:17.981Z,468.00
2023-05-15T00:48:17.926Z,467.00
2023-05-15T00:49:17.995Z,466.00
2023-05-15T00:50:18.043Z,464.00
2023-05-15T00:51:18.092Z,465.00
2023-05-15T00:52:18.238Z,462.00
2023-05-15T00:53:18.199Z,462.00
2023-05-15T00:54:18.324Z,463.00
2023-05-15T00:55:18.356Z,461.00
2023-05-15T00:56:18.401Z,461.00
2023-05-15T00:57:18.447Z,462.00
2023-05-15T00:58:18.548Z,463.00
2023-05-15T00:59:18.563Z,460.00
2023-05-15T01:00:18.618Z,460.00
2023-05-15T01:01:18.706Z,459.00
2023-05-15T01:02:18.782Z,459.00
2023-05-15T01:03:18.790Z,462.00
2023-05-15T01:04:18.813Z,462.00
2023-05-15T01:05:18.877Z,463.00
2023-05-15T01:06:18.920Z,464.00
2023-05-15T01:07:18.986Z,464.00
2023-05-15T01:08:19.042Z,465.00
2023-05-15T01:09:19.140Z,467.00
2023-05-15T01:10:19.149Z,465.00
2023-05-15T01:11:19.188Z,463.00
2023-05-15T01:12:19.258Z,460.00
2023-05-15T01:13:19.303Z,461.00
2023-05-15T01:14:19.360Z,459.00
2023-05-15T01:15:19.425Z,462.00
2023-05-15T01:16:19.491Z,464.00
2023-05-15T01:17:19.511Z,465.00
2023-05-15T01:18:19.635Z,464.00
2023-05-15T01:19:19.683Z,464.00
2023-05-15T01:20:19.703Z,465.00
2023-05-15T01:21:19.750Z,463.00
2023-05-15T01:22:19.811Z,461.00
2023-05-15T01:23:19.836Z,463.00
2023-05-15T01:24:19.900Z,463.00
2023-05-15T01:25:19.961Z,461.00
2023-05-15T01:26:20.044Z,462.00
2023-05-15T01:27:20.093Z,463.00
2023-05-15T01:28:20.141Z,463.00
2023-05-15T01:29:20.170Z,464.00
2023-05-15T01:30:20.234Z,464.00
2023-05-15T01:31:20.309Z,464.00
2023-05-15T01:32:20.420Z,464.00
2023-05-15T01:33:20.400Z,463.00
2023-05-15T01:34:20.454Z,462.00
2023-05-15T01:35:20.581Z,461.00
2023-05-15T01:36:20.584Z,462.00
2023-05-15T01:37:20.639Z,465.00
2023-05-15T01:38:20.678Z,465.00
2023-05-15T01:39:20.720Z,468.00
2023-05-15T01:40:20.772Z,470.00
2023-05-15T01:41:20.832Z,470.00
2023-05-15T01:42:20.912Z,466.00
2023-05-15T01:43:20.963Z,466.00
2023-05-15T01:44:21.017Z,463.00
2023-05-15T01:45:21.062Z,464.00
2023-05-15T01:46:21.205Z,465.00
2023-05-15T01:47:21.243Z,464.00
2023-05-15T01:48:21.248Z,465.00
2023-05-15T01:49:21.312Z,463.00
2023-05-15T01:50:21.393Z,461.00
2023-05-15T01:51:21.395Z,459.00
2023-05-15T01:52:21.465Z,460.00
2023-05-15T01:53:21.522Z,462.00
2023-05-15T01:54:21.588Z,462.00
2023-05-15T01:55:21.621Z,463.00
2023-05-15T01:56:21.696Z,463.00
2023-05-15T01:57:21.730Z,464.00
2023-05-15T01:58:21.819Z,463.00
2023-05-15T01:59:21.860Z,461.00
2023-05-15T02:00:21.930Z,462.00
2023-05-15T02:01:22.049Z,463.00
2023-05-15T02:02:22.184Z,464.00
2023-05-15T02:03:22.250Z,464.00
2023-05-15T02:04:22.161Z,466.00
2023-05-15T02:05:22.210Z,465.00
2023-05-15T02:06:22.290Z,465.00
2023-05-15T02:07:22.326Z,465.00
2023-05-15T02:08:22.382Z,466.00
2023-05-15T02:09:22.433Z,467.00
2023-05-15T02:10:22.498Z,468.00
2023-05-15T02:11:22.577Z,468.00
2023-05-15T02:12:22.655Z,470.00
2023-05-15T02:13:22.664Z,468.00
2023-05-15T02:14:22.723Z,469.00
2023-05-15T02:15:23.142Z,469.00
2023-05-15T02:16:22.918Z,468.00
2023-05-15T02:17:22.924Z,467.00
2023-05-15T02:18:22.982Z,463.00
2023-05-15T02:19:23.016Z,466.00
2023-05-15T02:20:23.060Z,465.00
2023-05-15T02:21:23.125Z,466.00
2023-05-15T02:22:23.157Z,467.00
2023-05-15T02:23:23.237Z,467.00
2023-05-15T02:24:23.285Z,469.00
2023-05-15T02:25:23.535Z,467.00
2023-05-15T02:26:23.399Z,467.00
2023-05-15T02:27:23.461Z,469.00
2023-05-15T02:28:23.528Z,467.00
2023-05-15T02:29:23.591Z,465.00
2023-05-15T02:30:23.617Z,467.00
2023-05-15T02:31:24.498Z,469.00
2023-05-15T02:32:23.801Z,468.00
2023-05-15T02:33:23.813Z,466.00
2023-05-15T02:34:23.854Z,465.00
2023-05-15T02:35:24.107Z,464.00
2023-05-15T02:36:23.981Z,465.00
2023-05-15T02:37:24.036Z,466.00
2023-05-15T02:38:24.152Z,466.00
2023-05-15T02:39:24.153Z,465.00
2023-05-15T02:40:24.196Z,465.00
2023-05-15T02:41:24.277Z,465.00
2023-05-15T02:42:24.303Z,466.00
2023-05-15T02:43:24.379Z,466.00
2023-05-15T02:44:24.420Z,467.00
2023-05-15T02:45:24.791Z,465.00
2023-05-15T02:46:24.577Z,463.00
2023-05-15T02:47:24.603Z,463.00
2023-05-15T02:48:24.652Z,462.00
2023-05-15T02:49:24.731Z,459.00
2023-05-15T02:50:24.781Z,460.00
2023-05-15T02:51:24.842Z,461.00
2023-05-15T02:52:24.896Z,461.00
2023-05-15T02:53:24.947Z,462.00
2023-05-15T02:54:25.009Z,461.00
2023-05-15T02:55:25.333Z,460.00
2023-05-15T02:56:25.127Z,459.00
2023-05-15T02:57:25.179Z,458.00
2023-05-15T02:58:25.215Z,459.00
2023-05-15T02:59:25.301Z,460.00
2023-05-15T03:00:25.340Z,460.00
2023-05-15T03:01:25.478Z,462.00
2023-05-15T03:02:25.534Z,463.00
2023-05-15T03:03:25.502Z,462.00
2023-05-15T03:04:25.604Z,464.00
2023-05-15T03:05:25.917Z,463.00
2023-05-15T03:06:25.692Z,463.00
2023-05-15T03:07:25.721Z,462.00
2023-05-15T03:08:25.806Z,462.00
2023-05-15T03:09:25.868Z,462.00
2023-05-15T03:10:25.918Z,459.00
2023-05-15T03:11:25.965Z,460.00
2023-05-15T03:12:26.082Z,460.00
2023-05-15T03:13:26.099Z,460.00
2023-05-15T03:14:26.126Z,463.00
2023-05-15T03:15:26.486Z,460.00
2023-05-15T03:16:26.279Z,459.00
2023-05-15T03:17:26.328Z,458.00
2023-05-15T03:18:26.391Z,459.00
2023-05-15T03:19:26.428Z,459.00
2023-05-15T03:20:26.478Z,457.00
2023-05-15T03:21:26.543Z,458.00
2023-05-15T03:22:26.613Z,455.00
2023-05-15T03:23:26.651Z,455.00
2023-05-15T03:24:26.733Z,458.00
2023-05-15T03:25:27.146Z,458.00
2023-05-15T03:26:26.831Z,458.00
2023-05-15T03:27:26.891Z,456.00
2023-05-15T03:28:26.939Z,454.00
2023-05-15T03:29:26.983Z,453.00
2023-05-15T03:30:27.033Z,453.00
2023-05-15T03:31:27.184Z,454.00
2023-05-15T03:32:27.148Z,454.00
2023-05-15T03:33:27.204Z,456.00
2023-05-15T03:34:27.233Z,459.00
2023-05-15T03:35:27.325Z,460.00
2023-05-15T03:36:27.344Z,465.00
2023-05-15T03:37:27.417Z,465.00
2023-05-15T03:38:27.453Z,463.00
2023-05-15T03:39:27.523Z,463.00
2023-05-15T03:40:27.569Z,464.00
2023-05-15T03:41:27.633Z,464.00
2023-05-15T03:42:27.687Z,463.00
2023-05-15T03:43:27.735Z,458.00
2023-05-15T03:44:27.822Z,458.00
2023-05-15T03:45:28.194Z,458.00
2023-05-15T03:46:27.962Z,458.00
2023-05-15T03:47:28.036Z,458.00
2023-05-15T03:48:28.030Z,458.00
2023-05-15T03:49:28.088Z,456.00
2023-05-15T03:50:28.112Z,456.00
2023-05-15T03:51:28.206Z,456.00
2023-05-15T03:52:28.252Z,454.00
2023-05-15T03:53:28.321Z,454.00
2023-05-15T03:54:28.373Z,454.00
2023-05-15T03:55:28.440Z,456.00
2023-05-15T03:56:28.484Z,458.00
2023-05-15T03:57:28.529Z,458.00
2023-05-15T03:58:28.570Z,460.00
2023-05-15T03:59:28.640Z,460.00
2023-05-15T04:00:28.698Z,460.00
2023-05-15T04:01:28.761Z,461.00
2023-05-15T04:02:28.866Z,459.00
2023-05-15T04:03:28.966Z,457.00
2023-05-15T04:04:28.951Z,456.00
2023-05-15T04:05:29.121Z,456.00
2023-05-15T04:06:29.036Z,459.00
2023-05-15T04:07:29.119Z,458.00
2023-05-15T04:08:29.169Z,460.00
2023-05-15T04:09:29.220Z,458.00
2023-05-15T04:10:29.292Z,456.00
2023-05-15T04:11:29.337Z,454.00
2023-05-15T04:12:29.401Z,454.00
2023-05-15T04:13:29.441Z,453.00
2023-05-15T04:14:29.562Z,453.00
2023-05-15T04:15:29.580Z,452.00
2023-05-15T04:16:29.640Z,453.00
2023-05-15T04:17:29.742Z,452.00
2023-05-15T04:18:29.778Z,451.00
2023-05-15T04:19:29.811Z,452.00
2023-05-15T04:20:29.861Z,452.00
2023-05-15T04:21:29.940Z,454.00
2023-05-15T04:22:30.003Z,453.00
2023-05-15T04:23:30.044Z,452.00
2023-05-15T04:24:30.101Z,452.00
2023-05-15T04:25:30.153Z,453.00
2023-05-15T04:26:30.250Z,451.00
2023-05-15T04:27:30.277Z,451.00
2023-05-15T04:28:30.616Z,452.00
2023-05-15T04:29:30.380Z,452.00
2023-05-15T04:30:30.457Z,451.00
2023-05-15T04:31:30.519Z,452.00
2023-05-15T04:32:30.563Z,452.00
2023-05-15T04:33:30.627Z,450.00
2023-05-15T04:34:30.692Z,450.00
2023-05-15T04:35:30.749Z,451.00
2023-05-15T04:36:30.808Z,449.00
2023-05-15T04:37:30.851Z,450.00
2023-05-15T04:38:30.922Z,450.00
2023-05-15T04:39:30.952Z,450.00
2023-05-15T04:40:31.025Z,449.00
2023-05-15T04:41:31.052Z,450.00
2023-05-15T04:42:31.138Z,450.00
2023-05-15T04:43:31.181Z,451.00
2023-05-15T04:44:31.211Z,454.00
2023-05-15T04:45:31.289Z,455.00
2023-05-15T04:46:31.378Z,453.00
2023-05-15T04:47:31.362Z,452.00
2023-05-15T04:48:31.411Z,450.00
2023-05-15T04:49:31.444Z,449.00
2023-05-15T04:50:31.502Z,448.00
2023-05-15T04:51:31.552Z,446.00
2023-05-15T04:52:31.620Z,449.00
2023-05-15T04:53:31.665Z,451.00
2023-05-15T04:54:31.748Z,452.00
2023-05-15T04:55:31.895Z,454.00
2023-05-15T04:56:31.799Z,454.00
2023-05-15T04:57:31.861Z,454.00
2023-05-15T04:58:31.936Z,453.00
2023-05-15T04:59:31.968Z,453.00
2023-05-15T05:00:32.020Z,451.00
2023-05-15T05:01:32.095Z,450.00
2023-05-15T05:02:32.161Z,452.00
2023-05-15T05:03:32.238Z,453.00
2023-05-15T05:04:32.282Z,449.00
2023-05-15T05:05:32.309Z,449.00
2023-05-15T05:06:32.395Z,450.00
2023-05-15T05:07:32.418Z,450.00
2023-05-15T05:08:32.477Z,453.00
2023-05-15T05:09:32.545Z,453.00
2023-05-15T05:10:32.654Z,454.00
2023-05-15T05:11:32.667Z,452.00
2023-05-15T05:12:32.717Z,453.00
2023-05-15T05:13:32.762Z,451.00
2023-05-15T05:14:32.818Z,450.00
2023-05-15T05:15:32.904Z,450.00
2023-05-15T05:16:33.088Z,449.00
2023-05-15T05:17:33.032Z,449.00
2023-05-15T05:18:33.090Z,448.00
2023-05-15T05:19:33.124Z,450.00
2023-05-15T05:20:33.163Z,450.00
2023-05-15T05:21:33.237Z,451.00
2023-05-15T05:22:33.278Z,452.00
2023-05-15T05:23:33.325Z,451.00
2023-05-15T05:24:33.360Z,453.00
2023-05-15T05:25:33.392Z,453.00
2023-05-15T05:26:33.464Z,455.00
2023-05-15T05:27:33.485Z,457.00
2023-05-15T05:28:33.597Z,461.00
2023-05-15T05:29:33.617Z,467.00
2023-05-15T05:30:33.673Z,480.00
2023-05-15T05:31:34.077Z,487.00
2023-05-15T05:32:33.807Z,561.00
2023-05-15T05:33:33.816Z,576.00
2023-05-15T05:34:33.887Z,582.00
2023-05-15T05:35:33.946Z,589.00
2023-05-15T05:36:34.017Z,605.00
2023-05-15T05:37:34.038Z,636.00
2023-05-15T05:38:34.100Z,714.00
2023-05-15T05:39:34.143Z,711.00
2023-05-15T05:40:34.183Z,762.00
2023-05-15T05:41:34.247Z,752.00
2023-05-15T05:42:34.302Z,746.00
2023-05-15T05:43:34.306Z,765.00
2023-05-15T05:44:34.355Z,805.00
2023-05-15T05:45:34.399Z,816.00
2023-05-15T05:46:34.447Z,835.00
2023-05-15T05:47:34.485Z,842.00
2023-05-15T05:48:34.454Z,837.00
2023-05-15T05:49:34.468Z,837.00
2023-05-15T05:50:34.510Z,842.00
2023-05-15T05:51:34.510Z,854.00
2023-05-15T05:52:34.963Z,864.00
2023-05-15T05:53:34.549Z,870.00
2023-05-15T05:54:34.544Z,912.00
2023-05-15T05:55:34.551Z,922.00
2023-05-15T05:56:34.564Z,925.00
2023-05-15T05:57:34.573Z,947.00
2023-05-15T05:58:34.606Z,977.00
2023-05-15T05:59:34.600Z,979.00
2023-05-15T06:00:34.590Z,987.00
2023-05-15T06:01:34.589Z,991.00
2023-05-15T06:02:35.008Z,985.00
2023-05-15T06:03:34.760Z,978.00
2023-05-15T06:04:34.805Z,966.00
2023-05-15T06:05:34.651Z,952.00
2023-05-15T06:06:34.621Z,944.00
2023-05-15T06:07:34.651Z,934.00
2023-05-15T06:08:34.672Z,921.00
2023-05-15T06:09:34.692Z,899.00
2023-05-15T06:10:34.621Z,892.00
2023-05-15T06:11:34.652Z,889.00
2023-05-15T06:12:34.987Z,881.00
2023-05-15T06:13:34.707Z,881.00
2023-05-15T06:14:34.754Z,885.00
2023-05-15T06:15:34.842Z,884.00
2023-05-15T06:16:34.931Z,883.00
2023-05-15T06:17:34.971Z,880.00
2023-05-15T06:18:34.937Z,878.00
2023-05-15T06:19:34.969Z,874.00
2023-05-15T06:20:34.968Z,871.00
2023-05-15T06:21:34.962Z,874.00
2023-05-15T06:22:34.980Z,869.00
2023-05-15T06:23:35.081Z,864.00
2023-05-15T06:24:35.150Z,862.00
2023-05-15T06:25:35.259Z,861.00
2023-05-15T06:26:35.347Z,871.00
2023-05-15T06:27:35.339Z,878.00
2023-05-15T06:28:35.356Z,878.00
2023-05-15T06:29:35.369Z,864.00
2023-05-15T06:30:35.433Z,867.00
2023-05-15T06:31:35.393Z,863.00
2023-05-15T06:32:35.440Z,866.00
2023-05-15T06:33:35.459Z,860.00
2023-05-15T06:34:35.557Z,828.00
2023-05-15T06:35:35.639Z,807.00
2023-05-15T06:36:35.733Z,775.00
2023-05-15T06:37:35.977Z,784.00
2023-05-15T06:38:35.888Z,804.00
2023-05-15T06:39:35.866Z,804.00
2023-05-15T06:40:35.877Z,798.00
2023-05-15T06:41:35.962Z,780.00
2023-05-15T06:42:35.973Z,780.00
2023-05-15T06:43:36.523Z,783.00
2023-05-15T06:44:36.011Z,788.00
2023-05-15T06:45:36.062Z,786.00
2023-05-15T06:46:36.129Z,789.00
2023-05-15T06:47:36.223Z,789.00
2023-05-15T06:48:36.257Z,787.00
2023-05-15T06:49:36.302Z,768.00
2023-05-15T06:50:36.328Z,773.00
2023-05-15T06:51:36.326Z,782.00
2023-05-15T06:52:36.347Z,792.00
2023-05-15T06:53:36.394Z,787.00
2023-05-15T06:54:36.464Z,788.00
2023-05-15T06:55:36.498Z,782.00
2023-05-15T06:56:36.528Z,775.00
2023-05-15T06:57:36.565Z,768.00
2023-05-15T06:58:36.612Z,766.00
2023-05-15T06:59:36.654Z,697.00
2023-05-15T07:00:36.684Z,695.00
2023-05-15T07:01:36.743Z,697.00
2023-05-15T07:02:36.963Z,702.00
2023-05-15T07:03:36.768Z,679.00
2023-05-15T07:04:36.842Z,645.00
2023-05-15T07:05:36.772Z,629.00
2023-05-15T07:06:36.930Z,620.00
2023-05-15T07:07:36.993Z,617.00
2023-05-15T07:08:36.970Z,612.00
2023-05-15T07:09:36.995Z,605.00
2023-05-15T07:10:36.998Z,603.00
2023-05-15T07:11:36.986Z,604.00
2023-05-15T07:12:36.997Z,596.00
2023-05-15T07:13:37.101Z,591.00
2023-05-15T07:14:37.109Z,585.00
2023-05-15T07:15:37.132Z,582.00
2023-05-15T07:16:37.127Z,582.00
2023-05-15T07:17:37.605Z,577.00
2023-05-15T07:18:37.218Z,584.00
2023-05-15T07:19:37.192Z,583.00
2023-05-15T07:20:37.524Z,587.00
2023-05-15T07:21:37.148Z,590.00
2023-05-15T07:22:44.568Z,587.00
2023-05-15T07:23:38.107Z,597.00
2023-05-15T07:24:39.715Z,650.00
2023-05-15T07:25:37.125Z,657.00
2023-05-15T07:26:46.629Z,677.00
2023-05-15T07:27:38.506Z,699.00
2023-05-15T07:28:37.096Z,717.00
2023-05-15T07:29:37.071Z,726.00
2023-05-15T07:30:37.065Z,754.00
2023-05-15T07:31:37.108Z,833.00
2023-05-15T07:32:37.082Z,850.00
2023-05-15T07:33:37.046Z,869.00
2023-05-15T07:34:37.139Z,876.00
2023-05-15T07:35:37.111Z,884.00
2023-05-15T07:36:37.126Z,894.00
2023-05-15T07:37:37.546Z,898.00
2023-05-15T07:38:37.207Z,898.00
2023-05-15T07:39:37.362Z,906.00
2023-05-15T07:40:37.304Z,909.00
2023-05-15T07:41:37.312Z,911.00
2023-05-15T07:42:37.358Z,908.00
2023-05-15T07:43:37.358Z,908.00
2023-05-15T07:44:37.364Z,907.00
2023-05-15T07:45:37.478Z,903.00
2023-05-15T07:46:37.461Z,902.00
2023-05-15T07:47:37.482Z,899.00
2023-05-15T07:48:37.430Z,895.00
2023-05-15T07:49:37.461Z,891.00
2023-05-15T07:50:37.464Z,889.00
2023-05-15T07:51:37.434Z,883.00
2023-05-15T07:52:37.520Z,875.00
2023-05-15T07:53:37.506Z,873.00
2023-05-15T07:54:37.523Z,871.00
2023-05-15T07:55:37.604Z,861.00
2023-05-15T07:56:37.550Z,854.00
2023-05-15T07:57:37.605Z,840.00
2023-05-15T07:58:37.629Z,853.00
2023-05-15T07:59:37.710Z,859.00
2023-05-15T08:00:37.661Z,867.00
2023-05-15T08:01:37.708Z,873.00
2023-05-15T08:02:37.948Z,876.00
2023-05-15T08:03:37.872Z,882.00
2023-05-15T08:04:37.989Z,894.00
2023-05-15T08:05:37.800Z,907.00
2023-05-15T08:06:37.935Z,908.00
2023-05-15T08:07:37.881Z,905.00
2023-05-15T08:08:37.881Z,899.00
2023-05-15T08:09:37.934Z,896.00
2023-05-15T08:10:37.952Z,893.00
2023-05-15T08:11:37.984Z,896.00
2023-05-15T08:12:38.009Z,892.00
2023-05-15T08:13:38.010Z,888.00
2023-05-15T08:14:38.137Z,890.00
2023-05-15T08:15:38.153Z,888.00
2023-05-15T08:16:38.103Z,879.00
2023-05-15T08:17:38.144Z,877.00
2023-05-15T08:18:38.201Z,880.00
2023-05-15T08:19:38.190Z,881.00
2023-05-15T08:20:38.239Z,880.00
2023-05-15T08:21:38.250Z,884.00
2023-05-15T08:22:38.273Z,889.00
2023-05-15T08:23:38.333Z,875.00
2023-05-15T08:24:38.401Z,874.00
2023-05-15T08:25:38.375Z,887.00
2023-05-15T08:26:38.434Z,896.00
2023-05-15T08:27:38.514Z,915.00
2023-05-15T08:28:38.487Z,950.00
2023-05-15T08:29:39.574Z,943.00
2023-05-15T08:30:38.521Z,937.00
2023-05-15T08:31:38.570Z,924.00
2023-05-15T08:32:38.637Z,921.00
2023-05-15T08:33:38.576Z,917.00
2023-05-15T08:34:38.731Z,909.00
2023-05-15T08:35:38.633Z,909.00
2023-05-15T08:36:39.648Z,918.00
2023-05-15T08:37:39.051Z,904.00
2023-05-15T08:38:38.662Z,888.00
2023-05-15T08:39:38.703Z,880.00
2023-05-15T08:40:40.234Z,870.00
2023-05-15T08:41:41.140Z,841.00
2023-05-15T08:42:39.060Z,802.00
2023-05-15T08:43:38.921Z,791.00
2023-05-15T08:44:38.941Z,762.00
2023-05-15T08:45:38.956Z,738.00
2023-05-15T08:46:39.005Z,685.00
2023-05-15T08:47:39.060Z,656.00
2023-05-15T08:48:39.150Z,641.00
2023-05-15T08:49:39.074Z,627.00
2023-05-15T08:50:39.134Z,611.00
2023-05-15T08:51:39.152Z,602.00
2023-05-15T08:52:39.531Z,595.00
2023-05-15T08:53:39.191Z,589.00
2023-05-15T08:54:39.201Z,587.00
2023-05-15T08:55:39.227Z,583.00
2023-05-15T08:56:39.253Z,585.00
2023-05-15T08:57:39.571Z,586.00
2023-05-15T08:58:39.348Z,584.00
2023-05-15T08:59:39.418Z,581.00
2023-05-15T09:00:39.498Z,577.00
2023-05-15T09:01:39.529Z,574.00
2023-05-15T09:02:39.701Z,571.00
2023-05-15T09:03:39.742Z,567.00
2023-05-15T09:04:39.637Z,562.00
2023-05-15T09:05:40.228Z,559.00
2023-05-15T09:06:39.753Z,555.00
2023-05-15T09:07:39.793Z,554.00
2023-05-15T09:08:39.863Z,551.00
2023-05-15T09:09:39.902Z,548.00
2023-05-15T09:10:39.980Z,545.00
2023-05-15T09:11:40.044Z,544.00
2023-05-15T09:12:40.082Z,541.00
2023-05-15T09:13:40.161Z,538.00
2023-05-15T09:14:40.208Z,538.00
2023-05-15T09:15:40.291Z,539.00
2023-05-15T09:16:40.397Z,539.00
2023-05-15T09:17:40.447Z,542.00
2023-05-15T09:18:40.586Z,542.00
2023-05-15T09:19:40.516Z,541.00
2023-05-15T09:20:40.579Z,540.00
2023-05-15T09:21:40.646Z,537.00
2023-05-15T09:22:41.564Z,534.00
2023-05-15T09:23:40.771Z,534.00
2023-05-15T09:24:40.837Z,535.00
2023-05-15T09:25:40.937Z,534.00
2023-05-15T09:26:40.928Z,532.00
2023-05-15T09:27:40.985Z,571.00
2023-05-15T09:28:41.105Z,730.00
2023-05-15T09:29:41.177Z,703.00
2023-05-15T09:30:41.198Z,703.00
2023-05-15T09:31:42.019Z,718.00
2023-05-15T09:32:41.291Z,755.00
2023-05-15T09:33:41.356Z,803.00
2023-05-15T09:34:41.370Z,792.00
2023-05-15T09:35:41.465Z,747.00
2023-05-15T09:36:41.463Z,737.00
2023-05-15T09:37:41.584Z,726.00
2023-05-15T09:38:41.581Z,709.00
2023-05-15T09:39:41.611Z,689.00
2023-05-15T09:40:41.660Z,645.00
2023-05-15T09:41:41.715Z,632.00
2023-05-15T09:42:41.810Z,619.00
2023-05-15T09:43:41.825Z,609.00
2023-05-15T09:44:41.874Z,602.00
2023-05-15T09:45:41.948Z,593.00
2023-05-15T09:46:42.051Z,586.00
2023-05-15T09:47:42.076Z,583.00
2023-05-15T09:48:42.163Z,578.00
2023-05-15T09:49:42.148Z,574.00
2023-05-15T09:50:42.248Z,568.00
2023-05-15T09:51:42.281Z,564.00
2023-05-15T09:52:42.357Z,560.00
2023-05-15T09:53:42.408Z,555.00
2023-05-15T09:54:42.460Z,555.00
2023-05-15T09:55:42.518Z,548.00
2023-05-15T09:56:42.566Z,545.00
2023-05-15T09:57:42.626Z,542.00
2023-05-15T09:58:42.688Z,540.00
2023-05-15T09:59:42.725Z,539.00
2023-05-15T10:00:48.673Z,535.00
2023-05-15T10:01:43.814Z,535.00
2023-05-15T10:02:42.808Z,533.00
2023-05-15T10:03:43.061Z,531.00
2023-05-15T10:04:42.724Z,530.00
2023-05-15T10:05:43.913Z,530.00
2023-05-15T10:06:43.343Z,527.00
2023-05-15T10:07:42.728Z,527.00
2023-05-15T10:08:43.066Z,524.00
2023-05-15T10:09:42.751Z,525.00
2023-05-15T10:10:42.821Z,524.00
2023-05-15T10:11:42.855Z,521.00
2023-05-15T10:12:42.927Z,522.00
2023-05-15T10:13:42.995Z,521.00
2023-05-15T10:14:42.998Z,520.00
2023-05-15T10:15:43.107Z,519.00
2023-05-15T10:16:43.188Z,519.00
2023-05-15T10:17:43.194Z,517.00
2023-05-15T10:18:43.615Z,517.00
2023-05-15T10:19:56.699Z,515.00
2023-05-15T10:20:44.294Z,512.00
2023-05-15T10:21:43.280Z,511.00
2023-05-15T10:22:43.281Z,513.00
2023-05-15T10:23:43.586Z,660.00
2023-05-15T10:24:43.252Z,688.00
2023-05-15T10:25:43.250Z,665.00
2023-05-15T10:26:43.256Z,669.00
2023-05-15T10:27:43.219Z,757.00
2023-05-15T10:28:44.959Z,800.00
2023-05-15T10:29:43.225Z,835.00
2023-05-15T10:30:43.215Z,856.00
2023-05-15T10:31:43.318Z,680.00
2023-05-15T10:32:43.319Z,665.00
2023-05-15T10:33:43.394Z,658.00
2023-05-15T10:34:43.419Z,639.00
2023-05-15T10:35:43.448Z,628.00
2023-05-15T10:36:43.520Z,617.00
2023-05-15T10:37:43.539Z,599.00
2023-05-15T10:38:43.562Z,586.00
2023-05-15T10:39:43.581Z,575.00
2023-05-15T10:40:43.596Z,571.00
2023-05-15T10:41:43.616Z,567.00
2023-05-15T10:42:43.651Z,565.00
2023-05-15T10:43:43.695Z,567.00
2023-05-15T10:44:43.725Z,568.00
2023-05-15T10:45:43.734Z,572.00
2023-05-15T10:46:43.802Z,574.00
2023-05-15T10:47:43.822Z,580.00
2023-05-15T10:48:43.870Z,580.00
2023-05-15T10:49:43.862Z,582.00
2023-05-15T10:50:43.884Z,583.00
2023-05-15T10:51:43.948Z,593.00
2023-05-15T10:52:43.948Z,591.00
2023-05-15T10:53:43.972Z,593.00
2023-05-15T10:54:44.003Z,601.00
2023-05-15T10:55:44.082Z,603.00
2023-05-15T10:56:44.040Z,605.00
2023-05-15T10:57:44.058Z,604.00
2023-05-15T10:58:44.072Z,605.00
2023-05-15T10:59:44.095Z,606.00
2023-05-15T11:00:44.202Z,609.00
2023-05-15T11:01:44.193Z,611.00
2023-05-15T11:02:44.185Z,607.00
2023-05-15T11:03:49.457Z,607.00
2023-05-15T11:04:45.180Z,608.00
2023-05-15T11:05:44.155Z,605.00
2023-05-15T11:06:44.118Z,602.00
2023-05-15T11:07:44.169Z,605.00
2023-05-15T11:08:44.124Z,611.00
2023-05-15T11:09:44.115Z,612.00
2023-05-15T11:10:44.143Z,607.00
2023-05-15T11:11:44.118Z,612.00
2023-05-15T11:12:44.108Z,604.00
2023-05-15T11:13:44.613Z,598.00
2023-05-15T11:14:44.129Z,589.00
2023-05-15T11:15:44.125Z,579.00
2023-05-15T11:16:44.125Z,572.00
2023-05-15T11:17:44.114Z,561.00
2023-05-15T11:18:44.184Z,552.00
2023-05-15T11:19:44.077Z,539.00
2023-05-15T11:20:44.069Z,528.00
2023-05-15T11:21:44.083Z,520.00
2023-05-15T11:22:44.189Z,517.00
2023-05-15T11:23:44.607Z,511.00
2023-05-15T11:24:44.236Z,506.00
2023-05-15T11:25:44.288Z,500.00
2023-05-15T11:26:44.317Z,495.00
2023-05-15T11:27:44.410Z,493.00
2023-05-15T11:28:44.448Z,490.00
2023-05-15T11:29:44.557Z,487.00
2023-05-15T11:30:44.602Z,484.00
2023-05-15T11:31:44.627Z,482.00
2023-05-15T11:32:44.659Z,478.00
2023-05-15T11:33:44.651Z,476.00
2023-05-15T11:34:44.649Z,483.00
2023-05-15T11:35:44.681Z,484.00
2023-05-15T11:36:44.667Z,485.00
2023-05-15T11:37:44.685Z,484.00
2023-05-15T11:38:44.702Z,489.00
2023-05-15T11:39:44.740Z,492.00
2023-05-15T11:40:44.781Z,496.00
2023-05-15T11:41:44.853Z,499.00
2023-05-15T11:42:44.915Z,500.00
2023-05-15T11:43:45.000Z,501.00
2023-05-15T11:44:44.999Z,501.00
2023-05-15T11:45:45.044Z,500.00
2023-05-15T11:46:45.147Z,499.00
2023-05-15T11:47:45.173Z,499.00
2023-05-15T11:48:45.213Z,501.00
2023-05-15T11:49:45.231Z,501.00
2023-05-15T11:50:45.289Z,500.00
2023-05-15T11:51:45.318Z,501.00
2023-05-15T11:52:45.342Z,500.00
2023-05-15T11:53:45.372Z,500.00
2023-05-15T11:54:45.413Z,499.00
2023-05-15T11:55:45.463Z,497.00
2023-05-15T11:56:45.478Z,495.00
2023-05-15T11:57:45.522Z,495.00
2023-05-15T11:58:45.529Z,496.00
2023-05-15T11:59:45.618Z,498.00
2023-05-15T12:00:45.636Z,498.00
2023-05-15T12:01:45.651Z,495.00
2023-05-15T12:02:45.743Z,494.00
2023-05-15T12:03:45.835Z,495.00
2023-05-15T12:04:45.876Z,492.00
2023-05-15T12:05:57.533Z,492.00
2023-05-15T12:06:46.752Z,492.00
2023-05-15T12:07:45.758Z,492.00
2023-05-15T12:08:46.118Z,490.00
2023-05-15T12:09:45.764Z,489.00
2023-05-15T12:10:46.650Z,488.00
2023-05-15T12:11:45.721Z,490.00
2023-05-15T12:12:45.724Z,490.00
2023-05-15T12:13:46.137Z,490.00
2023-05-15T12:14:45.698Z,487.00
2023-05-15T12:15:45.681Z,486.00
2023-05-15T12:16:45.794Z,486.00
2023-05-15T12:17:45.704Z,484.00
2023-05-15T12:18:45.734Z,484.00
2023-05-15T12:19:45.682Z,483.00
2023-05-15T12:20:45.679Z,481.00
2023-05-15T12:21:45.669Z,484.00
2023-05-15T12:22:45.669Z,485.00
2023-05-15T12:23:53.306Z,485.00
2023-05-15T12:24:46.650Z,484.00
2023-05-15T12:25:45.643Z,483.00
2023-05-15T12:26:45.634Z,484.00
2023-05-15T12:27:45.631Z,485.00
2023-05-15T12:28:45.631Z,488.00